LOWK Airport Information

Runway Information
Runway 10L Length 8924 ft width 148 ft
Elevation 1470 ft Threshold 656 ft Heading 106
Runway 28R Length 8924 ft Width 148 ft
Elevation 1445 ft Threshold 0 ft Heading 286
Runway 10R Length 2427 ft width 90 ft
Elevation 1470 ft Threshold 196 ft Heading 106
Runway 28L Length 2427 ft Width 90 ft
Elevation 1463 ft Threshold 196 ft Heading 286
Airport Frequencies
Type APP Name APP Frequency 126.825 MHZ
Type ATIS Name ATIS Frequency 124.075 MHZ
Type TWR Name TWR Frequency 118.1 MHZ
Airport Navaids
Type VOR-DME Name Klagenfurt Frequency 113100 KHZ
Type NDB Name Klagenfurt Frequency 374 KHZ
Type NDB Name Klagenfurt Frequency 405 KHZ
Type VOR-DME Name Villach Frequency 112900 KHZ
Airport Weather Information & NOTAM
ADDS - METARS form results

(0149 UTC 19 January 2018)
 
METAR text: LOWK 190120Z AUTO 34003KT 9999 NSC M01/M05 Q1005
Conditions at: LOWK (KLAGENFURT(CIV/M, AT) observed 0120 UTC 19 January 2018
Temperature: -1.0°C (30°F)
Dewpoint: -5.0°C (23°F) [RH = 74%]
Pressure (altimeter): 29.68 inches Hg (1005.0 mb)
Winds: from the NNW (340 degrees) at 3 MPH (3 knots; 1.6 m/s)
Visibility: 6 or more miles (10+ km)
Ceiling: at least 12,000 feet AGL
Clouds: sky clear below 12,000 feet AGL
Weather: no significant weather observed at this time

METAR text: LOWK 190050Z AUTO VRB02KT 9999 NSC M01/M05 Q1005
Conditions at: LOWK (KLAGENFURT(CIV/M, AT) observed 0050 UTC 19 January 2018
Temperature: -1.0°C (30°F)
Dewpoint: -5.0°C (23°F) [RH = 74%]
Pressure (altimeter): 29.68 inches Hg (1005.0 mb)
Winds: variable direction winds at 2 MPH (2 knots; 1.0 m/s)
Visibility: 6 or more miles (10+ km)
Ceiling: at least 12,000 feet AGL
Clouds: sky clear below 12,000 feet AGL
Weather: no significant weather observed at this time